Time;durP1;ratioP1;P1;durP2;ratioP2;P2;SDS_P1;SDS_P2;PMS_P1;PMS_P2;Temp;Humidity;BMP_temperature;BMP_pressure;BME280_temperature;BME280_humidity;BME280_pressure;Samples;Min_cycle;Max_cycle;Signal;HPM_P1;HPM_P2
2021/09/06 00:00:11;;;;;;;17.38;11.13;;;17.40;78.20;;;;;;5015880;28;20044;-77
2021/09/06 00:02:37;;;;;;;17.40;12.00;;;17.40;78.40;;;;;;5014319;28;20034;-77
2021/09/06 00:05:05;;;;;;;22.55;12.38;;;17.40;78.50;;;;;;5014418;28;20033;-77
2021/09/06 00:07:31;;;;;;;22.73;12.80;;;17.40;78.70;;;;;;5015527;28;20032;-77
2021/09/06 00:10:02;;;;;;;20.05;11.65;;;17.30;78.70;;;;;;5015586;28;20037;-77
2021/09/06 00:12:28;;;;;;;21.20;12.90;;;17.30;79.00;;;;;;5014260;28;20022;-79
2021/09/06 00:14:53;;;;;;;19.65;12.15;;;17.30;79.00;;;;;;5015474;28;20037;-78
2021/09/06 00:17:19;;;;;;;20.05;12.00;;;17.20;79.30;;;;;;5014344;28;20395;-78
2021/09/06 00:19:45;;;;;;;19.30;12.10;;;17.20;79.50;;;;;;4998019;28;20041;-78
2021/09/06 00:22:10;;;;;;;18.77;11.90;;;17.20;79.60;;;;;;5015294;28;20141;-78
2021/09/06 00:24:36;;;;;;;18.13;12.15;;;17.10;79.60;;;;;;5014450;28;20030;-78
2021/09/06 00:27:02;;;;;;;19.13;11.75;;;17.10;79.80;;;;;;5030413;28;20489;-78
2021/09/06 00:29:27;;;;;;;20.27;12.48;;;17.10;80.00;;;;;;5030454;28;20034;-78
2021/09/06 00:31:53;;;;;;;20.08;11.60;;;17.00;80.10;;;;;;5013967;28;20029;-78
2021/09/06 00:34:19;;;;;;;20.48;12.77;;;17.00;80.20;;;;;;4997590;28;20084;-78
2021/09/06 00:36:44;;;;;;;19.00;11.55;;;17.00;80.30;;;;;;5015373;28;20037;-77
2021/09/06 00:39:10;;;;;;;16.35;11.05;;;17.00;80.40;;;;;;4997807;28;20120;-78
2021/09/06 00:41:35;;;;;;;21.30;12.02;;;16.90;80.60;;;;;;5013702;28;20022;-78
2021/09/06 00:44:02;;;;;;;18.73;11.95;;;16.80;80.80;;;;;;5013964;28;20061;-79
2021/09/06 00:46:28;;;;;;;18.67;11.95;;;16.80;81.00;;;;;;4997315;28;20114;-79
2021/09/06 00:48:53;;;;;;;18.15;11.32;;;16.80;81.20;;;;;;5013820;28;20033;-80
2021/09/06 00:51:19;;;;;;;17.65;11.32;;;16.70;81.30;;;;;;5013426;28;20466;-79
2021/09/06 00:53:45;;;;;;;21.63;11.50;;;16.70;81.40;;;;;;5013444;28;20091;-80
2021/09/06 00:56:11;;;;;;;17.80;11.60;;;16.60;81.70;;;;;;5013494;28;20068;-79
2021/09/06 00:58:37;;;;;;;20.17;11.20;;;16.50;82.00;;;;;;5014881;28;20405;-79
2021/09/06 01:01:02;;;;;;;19.17;11.45;;;16.50;82.20;;;;;;5014761;28;20477;-79
2021/09/06 01:03:28;;;;;;;16.55;10.77;;;16.40;82.30;;;;;;5014539;28;20061;-80
2021/09/06 01:05:54;;;;;;;18.23;9.93;;;16.40;82.50;;;;;;5013079;28;20018;-79
2021/09/06 01:08:20;;;;;;;17.15;11.05;;;16.30;82.60;;;;;;5013127;28;20055;-80
2021/09/06 01:10:46;;;;;;;16.58;10.85;;;16.30;82.70;;;;;;5014689;28;20033;-80
2021/09/06 01:13:11;;;;;;;20.58;11.95;;;16.20;82.80;;;;;;5014669;28;20057;-79
2021/09/06 01:15:37;;;;;;;18.75;12.00;;;16.20;82.90;;;;;;5014380;28;20390;-80
2021/09/06 01:18:03;;;;;;;20.27;12.00;;;16.10;83.00;;;;;;5013150;28;20516;-80
2021/09/06 01:20:29;;;;;;;18.35;10.88;;;16.10;83.20;;;;;;5012980;28;20099;-79
2021/09/06 01:22:54;;;;;;;19.15;11.73;;;16.10;83.40;;;;;;5030144;28;20494;-79
2021/09/06 01:25:20;;;;;;;19.38;10.57;;;16.10;83.60;;;;;;5029584;28;20057;-79
2021/09/06 01:27:46;;;;;;;19.65;12.55;;;16.00;83.70;;;;;;5013072;28;20065;-80
2021/09/06 01:30:13;;;;;;;20.73;12.40;;;16.00;83.80;;;;;;5014238;28;20025;-80
2021/09/06 01:32:39;;;;;;;19.75;11.85;;;16.00;84.00;;;;;;5012978;28;20423;-80
2021/09/06 01:35:06;;;;;;;18.73;12.05;;;15.90;84.10;;;;;;5012743;28;20081;-80
2021/09/06 01:37:31;;;;;;;19.77;11.90;;;16.00;84.40;;;;;;5013332;28;20355;-79
2021/09/06 01:39:57;;;;;;;20.27;12.55;;;15.90;84.50;;;;;;5013946;28;20045;-80
2021/09/06 01:42:23;;;;;;;19.77;12.02;;;15.90;84.60;;;;;;5012841;28;20053;-80
2021/09/06 01:44:48;;;;;;;19.55;12.45;;;15.80;84.60;;;;;;5013737;28;20116;-80
2021/09/06 01:47:14;;;;;;;20.92;11.65;;;15.80;84.70;;;;;;5012461;28;20354;-80
2021/09/06 01:49:40;;;;;;;20.83;12.50;;;15.70;84.80;;;;;;5013824;28;20084;-80
2021/09/06 01:52:05;;;;;;;18.23;11.80;;;15.70;85.00;;;;;;5012463;28;20022;-79
2021/09/06 01:54:31;;;;;;;21.98;11.15;;;15.60;85.00;;;;;;4986288;28;20027;-79
2021/09/06 01:56:57;;;;;;;16.67;11.43;;;15.60;85.40;;;;;;4992953;28;20033;-80
2021/09/06 01:59:23;;;;;;;18.27;11.15;;;15.60;85.50;;;;;;4992897;28;20042;-80
2021/09/06 02:01:49;;;;;;;17.85;11.15;;;15.50;85.50;;;;;;4996306;28;20151;-80
2021/09/06 02:04:14;;;;;;;18.77;10.45;;;15.50;85.70;;;;;;4994227;28;20058;-79
2021/09/06 02:06:40;;;;;;;15.80;10.75;;;15.40;85.70;;;;;;4994099;28;20080;-80
2021/09/06 02:09:06;;;;;;;19.20;11.95;;;15.40;85.90;;;;;;4994414;28;20030;-80
2021/09/06 02:11:31;;;;;;;21.10;11.15;;;15.40;86.10;;;;;;4992782;28;20054;-80
2021/09/06 02:13:58;;;;;;;19.67;11.68;;;15.30;86.20;;;;;;5009376;28;20023;-80
2021/09/06 02:16:24;;;;;;;18.20;11.85;;;15.30;86.50;;;;;;4993910;28;20022;-80
2021/09/06 02:18:51;;;;;;;18.27;12.75;;;15.30;86.60;;;;;;5012868;28;20500;-80
2021/09/06 02:21:16;;;;;;;20.52;11.88;;;15.30;86.80;;;;;;5012039;28;20054;-80
2021/09/06 02:23:42;;;;;;;19.90;11.77;;;15.30;87.00;;;;;;5013394;28;20026;-80
2021/09/06 02:26:08;;;;;;;19.08;12.13;;;15.20;87.10;;;;;;5012144;28;20148;-80
2021/09/06 02:28:33;;;;;;;22.05;12.77;;;15.20;87.30;;;;;;5012305;28;20037;-80
2021/09/06 02:30:59;;;;;;;21.27;13.50;;;15.20;88.10;;;;;;5012497;28;20037;-80
2021/09/06 02:33:24;;;;;;;17.80;11.95;;;15.20;87.60;;;;;;5012298;28;20054;-79
2021/09/06 02:35:50;;;;;;;21.27;13.77;;;15.20;87.80;;;;;;5011894;28;20120;-80
2021/09/06 02:38:16;;;;;;;22.23;13.63;;;15.20;87.90;;;;;;5013314;28;20110;-80
2021/09/06 02:40:41;;;;;;;21.23;12.23;;;15.20;88.10;;;;;;5028501;28;20033;-80
2021/09/06 02:43:07;;;;;;;21.75;12.85;;;15.10;88.10;;;;;;5012212;28;20076;-80
2021/09/06 02:45:33;;;;;;;17.63;11.85;;;15.10;88.10;;;;;;5028452;28;20521;-80
2021/09/06 02:47:58;;;;;;;18.30;11.57;;;15.10;88.70;;;;;;5029634;28;20025;-80
2021/09/06 02:50:24;;;;;;;21.13;12.60;;;15.10;88.20;;;;;;5032267;28;20519;-78
2021/09/06 02:52:51;;;;;;;19.10;10.63;;;15.10;88.20;;;;;;5014892;28;20179;-78
2021/09/06 02:55:17;;;;;;;20.08;12.40;;;15.00;88.20;;;;;;5015436;28;20026;-78
2021/09/06 02:57:42;;;;;;;17.83;11.82;;;15.00;88.30;;;;;;5015516;28;20041;-78
2021/09/06 03:00:09;;;;;;;19.42;12.25;;;15.00;88.40;;;;;;5017086;28;20488;-78
2021/09/06 03:02:34;;;;;;;17.42;11.98;;;14.90;88.40;;;;;;5016685;28;20038;-78
2021/09/06 03:05:00;;;;;;;20.40;11.38;;;14.90;88.50;;;;;;5015545;28;20034;-78
2021/09/06 03:07:26;;;;;;;19.08;11.38;;;14.90;88.70;;;;;;5016907;28;20037;-78
2021/09/06 03:09:52;;;;;;;19.17;11.52;;;14.80;88.70;;;;;;5015164;28;20033;-78
2021/09/06 03:12:18;;;;;;;17.77;11.38;;;14.80;88.80;;;;;;5015555;28;20025;-78
2021/09/06 03:14:43;;;;;;;19.63;12.65;;;14.70;88.80;;;;;;4998944;28;20034;-78
2021/09/06 03:17:09;;;;;;;19.45;12.15;;;14.70;89.00;;;;;;4998928;28;20125;-78
2021/09/06 03:19:35;;;;;;;21.70;12.73;;;14.70;89.10;;;;;;4998918;28;20065;-78
2021/09/06 03:22:00;;;;;;;18.50;11.77;;;14.70;89.30;;;;;;4998734;28;20058;-78
2021/09/06 03:24:26;;;;;;;22.63;12.70;;;14.70;89.40;;;;;;5016128;28;20041;-78
2021/09/06 03:26:51;;;;;;;19.63;11.70;;;14.70;89.60;;;;;;5014740;28;20484;-78
2021/09/06 03:29:17;;;;;;;18.27;12.00;;;14.60;89.60;;;;;;5016544;28;20371;-78
2021/09/06 03:31:43;;;;;;;23.10;12.82;;;14.60;89.70;;;;;;4998698;28;20037;-78
2021/09/06 03:34:08;;;;;;;20.92;13.02;;;14.60;89.80;;;;;;4998713;28;20034;-78
2021/09/06 03:36:34;;;;;;;22.63;13.05;;;14.60;89.90;;;;;;5015002;28;20038;-78
2021/09/06 03:38:59;;;;;;;21.63;13.13;;;14.60;90.00;;;;;;4998749;28;20045;-78
2021/09/06 03:41:25;;;;;;;20.42;13.55;;;14.50;89.90;;;;;;4998566;28;20030;-78
2021/09/06 03:43:51;;;;;;;19.65;12.57;;;14.50;89.90;;;;;;5014630;28;20025;-78
2021/09/06 03:46:17;;;;;;;20.90;12.15;;;14.50;90.00;;;;;;5014992;28;20042;-78
2021/09/06 03:48:43;;;;;;;21.45;12.85;;;14.50;90.30;;;;;;5016054;28;20504;-78
2021/09/06 03:51:09;;;;;;;20.60;12.23;;;14.50;90.10;;;;;;5015004;28;20030;-78
2021/09/06 03:53:35;;;;;;;18.92;11.80;;;14.50;90.10;;;;;;5014598;28;20375;-78
2021/09/06 03:56:00;;;;;;;20.70;12.73;;;14.40;90.10;;;;;;4998222;28;20034;-78
2021/09/06 03:58:27;;;;;;;19.77;12.57;;;14.40;90.40;;;;;;5031004;28;20451;-78
2021/09/06 04:00:53;;;;;;;18.60;11.93;;;14.40;90.20;;;;;;5014068;28;20040;-78
2021/09/06 04:03:18;;;;;;;21.05;12.50;;;14.40;90.20;;;;;;5014388;28;20041;-78
2021/09/06 04:05:44;;;;;;;22.98;12.88;;;14.30;90.20;;;;;;4998003;28;20026;-78
2021/09/06 04:08:10;;;;;;;22.40;13.15;;;14.30;90.50;;;;;;5030780;28;20037;-78
2021/09/06 04:10:35;;;;;;;18.42;11.63;;;14.30;90.30;;;;;;5014215;28;20038;-78
2021/09/06 04:13:01;;;;;;;17.73;11.63;;;14.30;90.30;;;;;;5014197;28;20034;-78
2021/09/06 04:15:27;;;;;;;20.38;12.43;;;14.20;90.40;;;;;;5015301;28;20038;-78
2021/09/06 04:17:52;;;;;;;18.27;11.73;;;14.20;90.40;;;;;;5014158;28;20516;-78
2021/09/06 04:20:18;;;;;;;26.73;11.95;;;14.20;90.50;;;;;;5013125;28;20030;-78
2021/09/06 04:22:44;;;;;;;18.92;11.63;;;14.20;90.50;;;;;;5013597;28;20061;-78
2021/09/06 04:25:10;;;;;;;20.58;11.55;;;14.20;90.50;;;;;;4997963;28;20467;-78
2021/09/06 04:27:36;;;;;;;21.25;12.25;;;14.20;90.60;;;;;;4994152;28;20109;-78
2021/09/06 04:30:04;;;;;;;19.13;11.95;;;14.20;90.90;;;;;;5013078;28;20069;-79
2021/09/06 04:32:29;;;;;;;19.63;11.43;;;14.20;90.70;;;;;;4973361;28;20417;-78
2021/09/06 04:34:55;;;;;;;21.02;12.15;;;14.10;90.70;;;;;;4983031;28;20038;-78
2021/09/06 04:37:21;;;;;;;19.27;12.38;;;14.20;90.80;;;;;;4994163;28;20034;-78
2021/09/06 04:39:46;;;;;;;18.80;11.50;;;14.20;90.80;;;;;;4996016;28;20038;-78
2021/09/06 04:42:12;;;;;;;16.75;11.25;;;14.20;91.00;;;;;;4995295;28;20038;-78
2021/09/06 04:44:38;;;;;;;17.35;11.70;;;14.10;90.80;;;;;;4994028;28;20443;-79
2021/09/06 04:47:04;;;;;;;18.13;11.63;;;14.10;90.80;;;;;;4961694;28;20042;-78
2021/09/06 04:49:29;;;;;;;21.08;11.75;;;14.10;90.80;;;;;;4977965;28;20118;-78
2021/09/06 04:51:55;;;;;;;19.75;11.77;;;14.10;90.80;;;;;;4977964;28;20398;-78
2021/09/06 04:54:21;;;;;;;18.73;10.68;;;14.10;90.80;;;;;;4993856;28;20033;-78
2021/09/06 04:56:47;;;;;;;18.10;11.07;;;14.10;90.90;;;;;;4993879;28;20037;-78
2021/09/06 04:59:13;;;;;;;19.25;11.95;;;14.00;90.90;;;;;;5010110;28;20033;-78
2021/09/06 05:01:38;;;;;;;20.02;12.07;;;14.00;91.20;;;;;;4995210;28;20391;-78
2021/09/06 05:04:04;;;;;;;20.05;12.35;;;14.00;91.00;;;;;;5010046;28;20035;-79
2021/09/06 05:06:30;;;;;;;21.00;12.88;;;14.10;91.10;;;;;;4977505;28;20093;-79
2021/09/06 05:08:57;;;;;;;19.25;12.15;;;14.00;91.10;;;;;;5019855;28;20025;-79
2021/09/06 05:11:23;;;;;;;21.65;12.82;;;14.00;91.20;;;;;;5013378;28;20413;-78
2021/09/06 05:13:48;;;;;;;22.13;12.65;;;14.00;91.20;;;;;;5013205;28;20026;-78
2021/09/06 05:16:14;;;;;;;20.77;12.20;;;14.00;91.20;;;;;;4996695;28;20084;-78
2021/09/06 05:18:40;;;;;;;24.25;13.02;;;14.00;91.30;;;;;;4996710;28;20104;-77
2021/09/06 05:21:06;;;;;;;20.95;12.35;;;13.90;91.30;;;;;;5013174;28;20081;-77
2021/09/06 05:23:31;;;;;;;23.08;12.52;;;14.00;91.30;;;;;;4996599;28;20033;-77
2021/09/06 05:25:57;;;;;;;19.45;11.35;;;14.00;91.30;;;;;;4996574;28;20030;-78
2021/09/06 05:28:23;;;;;;;21.10;12.88;;;14.00;91.30;;;;;;5014117;28;20057;-77
2021/09/06 05:30:48;;;;;;;20.88;12.55;;;14.00;91.30;;;;;;4996446;28;20475;-77
2021/09/06 05:33:14;;;;;;;25.27;13.95;;;14.00;91.30;;;;;;4996511;28;20030;-77
2021/09/06 05:35:40;;;;;;;22.10;13.35;;;14.10;91.30;;;;;;5012912;28;20049;-79
2021/09/06 05:38:06;;;;;;;21.42;12.90;;;14.10;91.30;;;;;;5012825;28;20103;-77
2021/09/06 05:40:31;;;;;;;24.35;12.02;;;14.10;91.40;;;;;;4996309;28;20037;-77
2021/09/06 05:42:57;;;;;;;23.80;13.68;;;14.10;91.40;;;;;;4996419;28;20057;-77
2021/09/06 05:45:22;;;;;;;23.38;13.43;;;14.20;91.40;;;;;;4980260;28;20486;-77
2021/09/06 05:47:49;;;;;;;19.35;12.77;;;14.20;91.50;;;;;;5014058;28;20022;-77
2021/09/06 05:50:17;;;;;;;23.45;13.20;;;14.20;91.50;;;;;;5012559;28;20029;-77
2021/09/06 05:52:44;;;;;;;23.67;12.80;;;14.20;91.50;;;;;;4996885;28;20065;-77
2021/09/06 05:55:11;;;;;;;27.90;14.98;;;14.30;91.60;;;;;;5012701;28;20287;-77
2021/09/06 05:57:37;;;;;;;29.70;14.77;;;14.30;91.60;;;;;;5013944;28;20121;-78
2021/09/06 06:00:03;;;;;;;23.83;14.70;;;14.30;91.60;;;;;;4997311;28;20553;-77
2021/09/06 06:02:29;;;;;;;26.45;15.98;;;14.30;91.60;;;;;;5013893;28;20048;-77
2021/09/06 06:04:54;;;;;;;25.95;16.60;;;14.50;91.70;;;;;;5012212;28;20038;-77
2021/09/06 06:07:20;;;;;;;30.70;18.00;;;14.40;91.80;;;;;;4995032;28;20026;-76
2021/09/06 06:09:48;;;;;;;29.40;17.52;;;14.40;91.90;;;;;;5013069;28;20033;-78
2021/09/06 06:12:13;;;;;;;29.98;16.70;;;14.50;91.90;;;;;;5013523;28;20037;-75
2021/09/06 06:14:39;;;;;;;29.92;17.45;;;14.60;92.00;;;;;;5013143;28;20037;-75
2021/09/06 06:17:05;;;;;;;29.17;17.35;;;14.50;92.00;;;;;;4995597;28;20061;-76
2021/09/06 06:19:31;;;;;;;26.83;17.08;;;14.60;92.10;;;;;;5011456;28;20557;-76
2021/09/06 06:21:56;;;;;;;25.95;17.05;;;14.60;92.20;;;;;;5011150;28;20141;-78
2021/09/06 06:24:22;;;;;;;30.50;18.55;;;14.60;92.20;;;;;;5012869;28;20034;-79
2021/09/06 06:26:48;;;;;;;29.30;17.75;;;14.70;92.20;;;;;;5015693;28;20038;-80
2021/09/06 06:29:13;;;;;;;28.80;17.80;;;14.70;92.30;;;;;;5015261;28;20041;-80
2021/09/06 06:31:39;;;;;;;28.10;17.73;;;14.70;92.30;;;;;;5016929;28;20030;-80
2021/09/06 06:34:05;;;;;;;30.65;18.42;;;14.80;92.40;;;;;;5016025;28;20096;-81
2021/09/06 06:36:30;;;;;;;33.63;19.00;;;14.80;92.40;;;;;;4981476;28;20038;-80
2021/09/06 06:38:56;;;;;;;27.77;18.15;;;14.90;92.50;;;;;;5014174;28;20034;-77
2021/09/06 06:41:22;;;;;;;35.15;19.27;;;14.90;92.50;;;;;;4998524;28;20036;-78
2021/09/06 06:43:47;;;;;;;37.00;18.50;;;15.00;92.50;;;;;;5015769;28;20040;-78
2021/09/06 06:46:14;;;;;;;31.20;19.88;;;15.00;92.60;;;;;;4999167;28;20041;-77
2021/09/06 06:48:40;;;;;;;30.65;19.48;;;15.10;92.60;;;;;;4999164;28;20092;-78
2021/09/06 06:51:06;;;;;;;33.40;20.20;;;15.10;92.60;;;;;;5014799;28;20030;-78
2021/09/06 06:53:31;;;;;;;30.13;18.73;;;15.20;92.70;;;;;;5015832;28;20394;-77
2021/09/06 06:55:57;;;;;;;29.80;19.23;;;15.20;92.70;;;;;;5015663;28;20033;-78
2021/09/06 06:58:24;;;;;;;31.52;19.95;;;15.30;92.80;;;;;;4998797;28;20122;-78
2021/09/06 07:00:50;;;;;;;33.22;20.48;;;15.40;92.80;;;;;;5015273;28;20458;-78
2021/09/06 07:03:16;;;;;;;32.25;20.67;;;15.40;92.80;;;;;;4982846;28;20359;-78
2021/09/06 07:05:42;;;;;;;30.27;19.77;;;15.50;92.90;;;;;;5016596;28;20022;-78
2021/09/06 07:08:07;;;;;;;33.10;20.33;;;15.50;92.80;;;;;;5015506;28;20113;-78
2021/09/06 07:10:33;;;;;;;33.75;20.33;;;15.50;92.80;;;;;;4999086;28;20029;-79
2021/09/06 07:12:58;;;;;;;30.60;19.73;;;15.60;92.80;;;;;;5015601;28;20037;-78
2021/09/06 07:15:24;;;;;;;30.27;19.58;;;15.70;92.80;;;;;;5016498;28;20029;-79
2021/09/06 07:17:50;;;;;;;29.80;19.75;;;15.70;92.80;;;;;;4999028;28;20091;-79
2021/09/06 07:20:15;;;;;;;31.88;20.70;;;15.80;92.80;;;;;;4998952;28;20103;-79
2021/09/06 07:22:42;;;;;;;34.20;20.40;;;15.80;92.80;;;;;;5013930;28;20446;-79
2021/09/06 07:25:08;;;;;;;27.75;18.45;;;15.90;92.80;;;;;;5013909;28;20040;-78
2021/09/06 07:27:35;;;;;;;28.75;19.45;;;16.00;92.70;;;;;;5013857;28;20113;-79
2021/09/06 07:30:01;;;;;;;29.17;19.67;;;16.00;92.70;;;;;;5014048;28;20099;-79
2021/09/06 07:32:26;;;;;;;34.20;19.77;;;16.10;92.70;;;;;;5014980;28;20471;-78
2021/09/06 07:34:52;;;;;;;34.08;19.52;;;16.10;92.60;;;;;;5013698;28;20034;-79
2021/09/06 07:37:18;;;;;;;28.85;18.70;;;16.20;92.60;;;;;;5013945;28;20084;-78
2021/09/06 07:39:47;;;;;;;28.95;19.05;;;16.20;92.60;;;;;;4997497;28;20025;-79
2021/09/06 07:42:12;;;;;;;29.98;18.27;;;16.30;92.60;;;;;;4982092;28;20397;-79
2021/09/06 07:44:38;;;;;;;28.02;17.52;;;16.40;92.60;;;;;;5013608;28;20112;-78
2021/09/06 07:47:03;;;;;;;28.02;18.30;;;16.50;92.60;;;;;;4997477;28;20034;-79
2021/09/06 07:49:29;;;;;;;29.92;17.13;;;16.50;92.50;;;;;;4980948;28;20030;-79
2021/09/06 07:51:55;;;;;;;32.05;19.45;;;16.60;92.40;;;;;;4981090;28;20029;-82
2021/09/06 07:54:22;;;;;;;29.45;18.42;;;16.70;92.40;;;;;;5013650;28;20497;-84
2021/09/06 07:56:50;;;;;;;27.05;16.90;;;16.80;92.40;;;;;;5013644;28;20045;-83
2021/09/06 07:59:17;;;;;;;27.10;17.35;;;16.90;92.30;;;;;;4981184;28;20391;-83
2021/09/06 08:01:44;;;;;;;27.23;18.55;;;17.00;92.30;;;;;;5013161;28;20113;-83
2021/09/06 08:04:10;;;;;;;27.50;17.05;;;17.10;92.30;;;;;;5013518;28;20376;-82
2021/09/06 08:06:36;;;;;;;24.30;15.73;;;17.10;92.20;;;;;;5013354;28;20065;-83
2021/09/06 08:09:02;;;;;;;27.35;16.85;;;17.20;92.10;;;;;;4997024;28;20030;-83
2021/09/06 08:11:28;;;;;;;27.83;17.73;;;17.30;92.00;;;;;;5013424;28;20029;-79
2021/09/06 08:13:53;;;;;;;25.20;16.58;;;17.40;91.80;;;;;;4996884;28;20430;-78
2021/09/06 08:16:19;;;;;;;27.85;16.52;;;17.50;91.70;;;;;;5013202;28;20038;-79
2021/09/06 08:18:45;;;;;;;24.50;16.48;;;17.60;91.60;;;;;;4996710;28;20479;-79
2021/09/06 08:21:10;;;;;;;28.67;16.88;;;17.70;91.60;;;;;;4974279;28;1126358;-79
2021/09/06 08:23:36;;;;;;;28.10;16.50;;;17.80;91.40;;;;;;5014295;28;20088;-79
2021/09/06 08:26:02;;;;;;;25.30;15.48;;;17.90;91.30;;;;;;5013815;28;20069;-79
2021/09/06 08:28:29;;;;;;;23.33;15.43;;;17.90;91.20;;;;;;5014271;28;20037;-79
2021/09/06 08:30:54;;;;;;;24.10;16.92;;;18.00;91.10;;;;;;5013788;28;20025;-79
2021/09/06 08:33:20;;;;;;;22.05;14.85;;;18.10;91.00;;;;;;5013786;28;20030;-79
2021/09/06 08:35:47;;;;;;;24.92;14.38;;;18.20;90.80;;;;;;5013821;28;20026;-80
2021/09/06 08:38:13;;;;;;;24.02;14.88;;;18.30;90.70;;;;;;5013958;28;20500;-79
2021/09/06 08:40:39;;;;;;;21.98;14.68;;;18.40;90.50;;;;;;5013758;28;20064;-79
2021/09/06 08:43:06;;;;;;;25.70;15.23;;;18.40;90.40;;;;;;5014752;28;20057;-78
2021/09/06 08:45:36;;;;;;;21.92;15.32;;;18.50;90.20;;;;;;4996516;28;20041;-78
2021/09/06 08:48:02;;;;;;;21.90;15.10;;;18.60;90.00;;;;;;4997351;28;20121;-79
2021/09/06 08:50:28;;;;;;;21.48;13.93;;;18.70;89.80;;;;;;4997302;28;20417;-78
2021/09/06 08:52:54;;;;;;;20.17;13.75;;;18.80;89.40;;;;;;4997059;28;20026;-78
2021/09/06 08:55:20;;;;;;;23.80;14.52;;;18.80;89.10;;;;;;5013407;28;20057;-79
2021/09/06 08:57:46;;;;;;;22.63;14.93;;;19.00;88.80;;;;;;5013558;28;20069;-79
2021/09/06 09:00:12;;;;;;;24.75;14.98;;;19.10;88.50;;;;;;5014587;28;20056;-79
2021/09/06 09:02:42;;;;;;;21.65;13.38;;;19.20;87.90;;;;;;5013151;28;20467;-79
2021/09/06 09:05:10;;;;;;;21.88;14.48;;;19.30;87.50;;;;;;5014528;28;20045;-80
2021/09/06 09:07:39;;;;;;;20.35;13.02;;;19.40;87.00;;;;;;5014523;28;20033;-79
2021/09/06 09:10:09;;;;;;;19.85;13.57;;;19.50;86.80;;;;;;5014588;28;20026;-79
2021/09/06 09:12:37;;;;;;;18.52;12.75;;;19.50;86.40;;;;;;5014222;28;20088;-78
2021/09/06 09:15:04;;;;;;;18.23;11.80;;;19.60;86.20;;;;;;5014236;28;20026;-80
2021/09/06 09:17:30;;;;;;;20.08;14.15;;;19.70;85.60;;;;;;5012589;28;20022;-79
2021/09/06 09:20:01;;;;;;;18.70;12.77;;;19.80;85.20;;;;;;4996636;28;20049;-80
2021/09/06 09:22:36;;;;;;;19.65;13.55;;;19.80;84.90;;;;;;5012659;28;20049;-79
2021/09/06 09:25:05;;;;;;;19.67;13.13;;;19.90;84.50;;;;;;5013024;28;20028;-79
2021/09/06 09:27:36;;;;;;;21.75;13.18;;;20.00;84.10;;;;;;5003202;28;20141;-78
2021/09/06 09:30:05;;;;;;;19.08;13.05;;;20.10;83.70;;;;;;5012849;28;20390;-79
2021/09/06 09:32:36;;;;;;;19.05;12.55;;;20.10;83.30;;;;;;5012812;28;20030;-79
2021/09/06 09:35:07;;;;;;;17.38;11.55;;;20.20;82.80;;;;;;5012756;28;20542;-79
2021/09/06 09:37:34;;;;;;;20.67;13.35;;;20.30;82.20;;;;;;5012829;28;20022;-79
2021/09/06 09:40:04;;;;;;;19.30;12.40;;;20.40;81.70;;;;;;4996453;28;20057;-79
2021/09/06 09:42:30;;;;;;;20.50;11.77;;;20.40;81.40;;;;;;5013809;28;20032;-78
2021/09/06 09:44:58;;;;;;;17.25;11.90;;;20.50;81.20;;;;;;5013743;28;20109;-78
2021/09/06 09:47:26;;;;;;;19.23;11.85;;;20.60;80.90;;;;;;5012642;28;20025;-78
2021/09/06 09:49:54;;;;;;;17.20;11.95;;;20.70;80.80;;;;;;5028722;28;20080;-78
2021/09/06 09:52:22;;;;;;;17.02;11.65;;;20.80;80.30;;;;;;5012468;28;20041;-78
2021/09/06 09:54:48;;;;;;;15.73;10.57;;;20.90;79.80;;;;;;5012126;28;20029;-78
2021/09/06 09:57:15;;;;;;;19.50;11.75;;;21.00;79.50;;;;;;5012342;28;20025;-79
2021/09/06 09:59:42;;;;;;;16.42;10.88;;;21.00;79.00;;;;;;5013593;28;20026;-78
2021/09/06 10:02:19;;;;;;;14.48;10.48;;;21.10;78.60;;;;;;5012225;28;20026;-78
2021/09/06 10:04:52;;;;;;;14.90;9.77;;;21.20;78.30;;;;;;5012331;28;20099;-78
2021/09/06 10:07:19;;;;;;;13.15;9.48;;;21.40;77.90;;;;;;5013609;28;20072;-79
2021/09/06 10:09:47;;;;;;;14.57;9.02;;;21.60;77.40;;;;;;5012590;28;20534;-81
2021/09/06 10:12:20;;;;;;;15.82;8.95;;;22.00;77.00;;;;;;5013607;28;20033;-82
2021/09/06 10:14:52;;;;;;;13.98;9.57;;;22.30;76.00;;;;;;5012001;28;20029;-81
2021/09/06 10:17:17;;;;;;;15.07;9.68;;;22.80;75.40;;;;;;5012072;28;20021;-81
2021/09/06 10:19:45;;;;;;;13.75;8.93;;;23.30;74.80;;;;;;5012251;28;20033;-81
2021/09/06 10:22:24;;;;;;;14.40;7.60;;;23.50;73.80;;;;;;5011967;28;20046;-82
2021/09/06 10:25:00;;;;;;;12.60;8.32;;;23.70;72.60;;;;;;5012941;28;20478;-81
2021/09/06 10:27:28;;;;;;;14.23;8.55;;;23.80;71.80;;;;;;4995686;28;20065;-82
2021/09/06 10:30:09;;;;;;;13.15;8.05;;;24.00;71.50;;;;;;5013358;28;20076;-80
2021/09/06 10:32:39;;;;;;;12.98;8.05;;;24.10;69.90;;;;;;5013192;28;20061;-81
2021/09/06 10:35:15;;;;;;;11.50;7.20;;;24.20;70.20;;;;;;5012113;28;20101;-80
2021/09/06 10:37:43;;;;;;;11.57;7.63;;;24.30;68.60;;;;;;5013040;28;20129;-80
2021/09/06 10:40:12;;;;;;;14.73;8.23;;;24.40;68.30;;;;;;5013067;28;20080;-80
2021/09/06 10:42:41;;;;;;;10.98;7.55;;;24.50;67.70;;;;;;5011821;28;20033;-81
2021/09/06 10:45:08;;;;;;;11.40;6.57;;;24.70;67.20;;;;;;5011748;28;20501;-80
2021/09/06 10:47:39;;;;;;;11.10;7.03;;;24.80;66.70;;;;;;5011805;28;20026;-81
2021/09/06 10:50:17;;;;;;;9.45;7.00;;;24.90;65.40;;;;;;5013075;28;20030;-80
2021/09/06 10:52:47;;;;;;;10.50;6.65;;;25.00;64.00;;;;;;5013117;28;20378;-80
2021/09/06 10:55:15;;;;;;;9.73;5.82;;;25.20;63.70;;;;;;5011492;28;20022;-80
2021/09/06 10:57:42;;;;;;;9.88;6.00;;;25.40;62.90;;;;;;5013037;28;20486;-80
2021/09/06 11:00:17;;;;;;;9.57;5.78;;;25.50;61.90;;;;;;4995326;28;20064;-80
2021/09/06 11:02:43;;;;;;;9.73;5.97;;;25.60;60.70;;;;;;5011754;28;20036;-82
2021/09/06 11:05:20;;;;;;;8.88;5.47;;;25.70;60.20;;;;;;5012888;28;20112;-80
2021/09/06 11:07:46;;;;;;;11.15;6.95;;;25.90;59.10;;;;;;4996004;28;20088;-83
2021/09/06 11:10:14;;;;;;;9.60;5.40;;;26.10;58.70;;;;;;5014645;28;20022;-80
2021/09/06 11:12:52;;;;;;;8.63;5.72;;;26.20;58.10;;;;;;5015460;28;20026;-80
2021/09/06 11:15:24;;;;;;;7.95;5.53;;;26.30;57.60;;;;;;5015595;28;20022;-80
2021/09/06 11:17:57;;;;;;;10.38;5.90;;;26.40;56.80;;;;;;5016456;28;20026;-80
2021/09/06 11:20:23;;;;;;;;;;;26.50;56.30;;;;;;5015054;28;20026;-80
2021/09/06 11:22:49;;;;;;;8.70;5.28;;;26.70;56.50;;;;;;5030571;28;20024;-81
2021/09/06 11:25:24;;;;;;;9.00;5.95;;;26.80;56.70;;;;;;5015993;28;20030;-81
2021/09/06 11:27:50;;;;;;;8.75;5.72;;;27.00;55.60;;;;;;5015043;28;20021;-82
2021/09/06 11:30:23;;;;;;;8.70;5.57;;;27.20;55.20;;;;;;5014857;28;20478;-82
2021/09/06 11:32:50;;;;;;;7.82;5.75;;;27.40;54.50;;;;;;4998709;28;20029;-81
2021/09/06 11:35:19;;;;;;;9.73;5.45;;;27.50;53.40;;;;;;4998596;28;20053;-80
2021/09/06 11:37:44;;;;;;;7.35;5.00;;;27.60;53.50;;;;;;4998677;28;20080;-81
2021/09/06 11:40:10;;;;;;;9.60;5.95;;;27.80;52.60;;;;;;5014833;28;20026;-81
2021/09/06 11:42:37;;;;;;;7.97;5.47;;;27.90;52.50;;;;;;5014644;28;20116;-81
2021/09/06 11:45:04;;;;;;;7.90;5.50;;;28.10;52.30;;;;;;4998096;28;20037;-81
2021/09/06 11:47:30;;;;;;;8.63;5.80;;;28.30;51.80;;;;;;5014606;28;20101;-81
2021/09/06 11:49:58;;;;;;;7.95;4.95;;;28.50;51.20;;;;;;5015877;28;20568;-80
2021/09/06 11:52:33;;;;;;;7.47;5.38;;;28.70;50.60;;;;;;5014431;28;20022;-81
2021/09/06 11:54:59;;;;;;;9.95;5.55;;;29.10;49.70;;;;;;5015605;28;20026;-81
2021/09/06 11:57:27;;;;;;;8.32;5.22;;;29.30;49.60;;;;;;5014324;28;20026;-81
2021/09/06 11:59:54;;;;;;;7.68;5.07;;;29.60;49.00;;;;;;5014439;28;20030;-81
2021/09/06 12:02:21;;;;;;;8.40;5.50;;;29.90;48.70;;;;;;5014125;28;20101;-79
2021/09/06 12:04:47;;;;;;;7.18;5.07;;;30.10;48.20;;;;;;5014135;28;20406;-81
2021/09/06 12:07:17;;;;;;;7.00;5.15;;;30.50;47.60;;;;;;5014230;28;20028;-81
2021/09/06 12:09:46;;;;;;;7.07;4.72;;;30.70;46.80;;;;;;5015516;28;20022;-81
2021/09/06 12:12:17;;;;;;;7.25;5.15;;;30.90;46.50;;;;;;5014333;28;20030;-82
2021/09/06 12:14:48;;;;;;;8.00;5.18;;;31.10;46.00;;;;;;5014057;28;20030;-81
2021/09/06 12:17:14;;;;;;;10.05;5.28;;;31.30;45.80;;;;;;5015316;28;20075;-80
2021/09/06 12:19:45;;;;;;;7.90;5.55;;;31.40;45.60;;;;;;5014158;28;20026;-81
2021/09/06 12:22:13;;;;;;;9.32;5.45;;;31.50;45.00;;;;;;5011701;28;20046;-81
2021/09/06 12:24:41;;;;;;;8.48;6.07;;;31.60;44.80;;;;;;5013502;28;20021;-81
2021/09/06 12:27:18;;;;;;;7.82;6.03;;;31.60;44.60;;;;;;4997241;28;20046;-80